createdAt,value
2022-09-20T00:01:26.339Z,10
2022-09-20T00:03:32.066Z,10
2022-09-20T00:05:37.935Z,10
2022-09-20T00:07:43.717Z,10
2022-09-20T00:09:49.565Z,10
2022-09-20T00:11:55.416Z,10
2022-09-20T00:14:01.259Z,10.1
2022-09-20T00:16:10.218Z,10.1
2022-09-20T00:18:15.999Z,10.1
2022-09-20T00:20:21.850Z,10.1
2022-09-20T00:22:27.652Z,10.2
2022-09-20T00:24:33.471Z,10.1
2022-09-20T00:26:39.321Z,10.2
2022-09-20T00:28:45.171Z,10.2
2022-09-20T00:30:54.097Z,10.2
2022-09-20T00:32:59.941Z,10.2
2022-09-20T00:35:05.780Z,10.2
2022-09-20T00:38:16.063Z,10.2
2022-09-20T00:40:22.012Z,10.2
2022-09-20T00:42:27.768Z,10.2
2022-09-20T00:44:36.712Z,10.2
2022-09-20T00:46:42.548Z,10.2
2022-09-20T00:48:48.428Z,10.1
2022-09-20T00:50:54.228Z,10.1
2022-09-20T00:53:00.087Z,10.1
2022-09-20T00:55:05.958Z,10.1
2022-09-20T00:57:11.777Z,10.1
2022-09-20T00:59:20.694Z,10.1
2022-09-20T01:01:26.673Z,10
2022-09-20T01:03:32.369Z,10
2022-09-20T01:05:38.229Z,10
2022-09-20T01:07:44.070Z,10
2022-09-20T01:16:10.485Z,9.9
2022-09-20T01:18:16.332Z,9.9
2022-09-20T01:20:22.139Z,9.8
2022-09-20T01:22:27.984Z,9.8
2022-09-20T01:24:33.798Z,9.8
2022-09-20T01:33:00.246Z,9.9
2022-09-20T01:34:04.680Z,9.9
2022-09-20T01:36:10.524Z,9.9
2022-09-20T01:38:16.349Z,9.9
2022-09-20T01:40:22.288Z,10
2022-09-20T01:42:31.104Z,10
2022-09-20T01:44:36.955Z,10
2022-09-20T01:46:42.773Z,10
2022-09-20T01:48:48.603Z,10
2022-09-20T01:50:54.452Z,10.1
2022-09-20T01:53:00.301Z,10.1
2022-09-20T01:55:06.111Z,10.2
2022-09-20T02:01:27.343Z,10.2
2022-09-20T02:05:38.976Z,10.3
2022-09-20T02:07:44.727Z,10.3
2022-09-20T02:09:50.584Z,10.3
2022-09-20T02:11:59.510Z,10.3
2022-09-20T02:14:05.497Z,10.4
2022-09-20T02:16:11.250Z,10.5
2022-09-20T02:18:17.034Z,10.5
2022-09-20T02:20:22.874Z,10.5
2022-09-20T02:22:28.750Z,10.5
2022-09-20T02:24:34.573Z,10.5
2022-09-20T02:28:49.360Z,10.6
2022-09-20T02:33:21.112Z,10.6
2022-09-20T02:35:27.099Z,10.6
2022-09-20T02:37:32.859Z,10.6
2022-09-20T02:39:41.666Z,10.7
2022-09-20T02:41:47.428Z,10.6
2022-09-20T02:43:53.269Z,10.7
2022-09-20T02:45:59.184Z,10.7
2022-09-20T02:48:04.885Z,10.8
2022-09-20T02:50:10.648Z,10.8
2022-09-20T02:52:16.477Z,10.8
2022-09-20T02:54:25.206Z,10.7
2022-09-20T02:56:31.073Z,10.8
2022-09-20T02:58:36.925Z,10.8
2022-09-20T03:00:42.800Z,10.8
2022-09-20T03:02:48.627Z,10.8
2022-09-20T03:09:09.212Z,10.7
2022-09-20T03:11:14.955Z,10.7
2022-09-20T03:13:20.799Z,10.7
2022-09-20T03:17:32.415Z,10.7
2022-09-20T03:19:38.276Z,10.6
2022-09-20T03:25:58.729Z,10.6
2022-09-20T03:29:08.924Z,10.6
2022-09-20T03:39:41.077Z,10.5
2022-09-20T03:41:46.920Z,10.6
2022-09-20T03:45:58.675Z,10.6
2022-09-20T03:48:04.391Z,10.6
2022-09-20T03:50:10.251Z,10.6
2022-09-20T03:52:19.191Z,10.6
2022-09-20T03:54:25.031Z,10.6
2022-09-20T03:56:30.908Z,10.6
2022-09-20T03:58:36.744Z,10.6
2022-09-20T04:00:42.692Z,10.6
2022-09-20T04:02:48.466Z,10.6
2022-09-20T04:04:54.335Z,10.6
2022-09-20T04:07:03.241Z,10.5
2022-09-20T04:09:09.116Z,10.5
2022-09-20T04:11:14.948Z,10.4
2022-09-20T04:13:20.805Z,10.4
2022-09-20T04:15:26.653Z,10.3
2022-09-20T04:17:32.520Z,10.3
2022-09-20T04:19:38.345Z,10.3
2022-09-20T04:21:47.290Z,10.2
2022-09-20T04:23:53.206Z,10.3
2022-09-20T04:25:58.968Z,10.2
2022-09-20T04:27:03.448Z,10.2
2022-09-20T04:29:09.350Z,10.2
2022-09-20T04:31:15.140Z,10.3
2022-09-20T04:33:20.965Z,10.3
2022-09-20T04:37:35.527Z,10.3
2022-09-20T04:39:41.297Z,10.3
2022-09-20T04:41:47.049Z,10.4
2022-09-20T04:43:52.756Z,10.4
2022-09-20T04:45:58.593Z,10.5
2022-09-20T04:48:04.279Z,10.5
2022-09-20T04:50:13.067Z,10.6
2022-09-20T04:54:24.781Z,10.7
2022-09-20T04:56:30.626Z,10.6
2022-09-20T05:00:44.001Z,10.7
2022-09-20T05:02:49.669Z,10.7
2022-09-20T05:04:58.630Z,10.7
2022-09-20T05:07:04.339Z,10.7
2022-09-20T05:09:10.275Z,10.7
2022-09-20T05:11:15.946Z,10.8
2022-09-20T05:13:21.797Z,10.8
2022-09-20T05:15:27.650Z,10.7
2022-09-20T05:17:33.521Z,10.8
2022-09-20T05:19:42.461Z,10.8
2022-09-20T05:21:48.323Z,10.8
2022-09-20T05:23:54.184Z,10.8
2022-09-20T05:24:58.550Z,10.7
2022-09-20T05:27:04.393Z,10.8
2022-09-20T05:31:16.110Z,10.7
2022-09-20T05:33:24.940Z,10.8
2022-09-20T05:35:30.815Z,10.8
2022-09-20T05:37:36.660Z,10.8
2022-09-20T05:39:42.515Z,10.8
2022-09-20T05:41:48.364Z,10.8
2022-09-20T05:43:54.218Z,10.8
2022-09-20T05:46:00.176Z,10.8
2022-09-20T05:48:09.028Z,10.9
2022-09-20T05:50:14.888Z,10.9
2022-09-20T05:52:20.740Z,10.9
2022-09-20T05:54:26.599Z,10.9
2022-09-20T05:56:32.455Z,10.8
2022-09-20T05:58:38.307Z,10.8
2022-09-20T06:00:43.912Z,10.8
2022-09-20T06:02:52.678Z,11
2022-09-20T06:04:58.415Z,11.1
2022-09-20T06:07:04.159Z,11.1
2022-09-20T06:09:09.942Z,11.1
2022-09-20T06:11:15.777Z,11
2022-09-20T06:13:21.634Z,11.1
2022-09-20T06:15:27.509Z,11.2
2022-09-20T06:17:36.463Z,11.4
2022-09-20T06:19:42.305Z,11.5
2022-09-20T06:21:48.065Z,11.4
2022-09-20T06:24:13.758Z,11.5
2022-09-20T06:26:19.519Z,11.5
2022-09-20T06:28:25.266Z,11.5
2022-09-20T06:30:34.037Z,11.4
2022-09-20T06:32:39.773Z,11.4
2022-09-20T06:34:45.549Z,11.3
2022-09-20T06:38:57.056Z,11.3
2022-09-20T06:41:02.840Z,11.3
2022-09-20T06:47:23.142Z,11.4
2022-09-20T06:49:28.874Z,11.5
2022-09-20T06:55:46.296Z,11.6
2022-09-20T06:57:52.037Z,11.7
2022-09-20T07:00:00.798Z,11.8
2022-09-20T07:02:06.577Z,11.8
2022-09-20T07:04:12.350Z,11.9
2022-09-20T07:06:18.061Z,11.9
2022-09-20T07:08:23.839Z,11.9
2022-09-20T07:10:29.630Z,12.1
2022-09-20T07:12:35.392Z,12.1
2022-09-20T07:14:44.150Z,12.3
2022-09-20T07:16:49.932Z,12.3
2022-09-20T07:18:55.687Z,12.3
2022-09-20T07:20:00.080Z,12.3
2022-09-20T07:22:05.829Z,12.3
2022-09-20T07:24:11.608Z,12.3
2022-09-20T07:26:17.384Z,12.5
2022-09-20T07:28:26.145Z,12.8
2022-09-20T07:30:31.941Z,12.9
2022-09-20T07:34:43.500Z,15.5
2022-09-20T07:38:55.145Z,15.4
2022-09-20T07:41:00.835Z,14.5
2022-09-20T07:43:09.605Z,13.5
2022-09-20T07:45:15.402Z,13.4
2022-09-20T07:49:26.984Z,13.9
2022-09-20T07:51:32.806Z,15.8
2022-09-20T07:53:38.590Z,15.9
2022-09-20T07:55:44.524Z,15.3
2022-09-20T07:57:53.182Z,15.1
2022-09-20T07:59:58.948Z,14.8
2022-09-20T08:02:04.800Z,14.5
2022-09-20T08:06:16.368Z,14.2
2022-09-20T08:08:22.188Z,14.1
2022-09-20T08:14:42.587Z,14.6
2022-09-20T08:16:48.521Z,15.1
2022-09-20T08:17:52.768Z,15.5
2022-09-20T08:19:58.602Z,15.5
2022-09-20T08:26:18.992Z,15.2
2022-09-20T08:28:24.802Z,15.2
2022-09-20T08:30:30.606Z,15.3
2022-09-20T08:32:36.417Z,15.3
2022-09-20T08:34:42.245Z,15.5
2022-09-20T08:41:02.625Z,15.6
2022-09-20T08:43:08.438Z,15.4
2022-09-20T08:45:22.341Z,15.2
2022-09-20T08:47:20.089Z,15.2
2022-09-20T08:49:25.897Z,15
2022-09-20T08:51:31.709Z,15.1
2022-09-20T08:53:37.536Z,15
2022-09-20T08:55:46.306Z,14.9
2022-09-20T08:57:52.104Z,14.9
2022-09-20T08:59:57.931Z,15
2022-09-20T09:02:03.791Z,15.2
2022-09-20T09:04:09.556Z,15.3
2022-09-20T09:06:18.462Z,15.3
2022-09-20T09:08:21.190Z,15.4
2022-09-20T09:10:29.972Z,15.6
2022-09-20T09:12:35.790Z,15.7
2022-09-20T09:14:41.609Z,15.9
2022-09-20T09:15:46.168Z,16.2
2022-09-20T09:17:51.784Z,16.3
2022-09-20T09:19:57.608Z,16.4
2022-09-20T09:22:03.423Z,16.6
2022-09-20T09:24:12.212Z,17.3
2022-09-20T09:26:18.033Z,17.7
2022-09-20T09:28:23.817Z,19.4
2022-09-20T09:30:29.628Z,19
2022-09-20T09:32:35.451Z,18.7
2022-09-20T09:41:01.652Z,17.1
2022-09-20T09:43:07.439Z,17.1
2022-09-20T09:45:13.257Z,16.9
2022-09-20T09:47:19.064Z,16.9
2022-09-20T09:49:24.883Z,16.9
2022-09-20T09:51:30.712Z,16.7
2022-09-20T09:53:39.490Z,16.8
2022-09-20T09:55:45.281Z,17.5
2022-09-20T09:57:51.104Z,18.7
2022-09-20T09:59:56.914Z,19.9
2022-09-20T10:02:02.822Z,21.1
2022-09-20T10:04:08.565Z,21.4
2022-09-20T10:06:14.338Z,21.2
2022-09-20T10:08:23.114Z,21.7
2022-09-20T10:10:28.915Z,21.1
2022-09-20T10:12:34.728Z,20.7
2022-09-20T10:24:01.422Z,17.9
2022-09-20T10:25:37.978Z,19.1
2022-09-20T10:27:43.807Z,19
2022-09-20T10:29:49.622Z,18.6
2022-09-20T10:31:55.417Z,18.6
2022-09-20T10:34:01.212Z,17.9
2022-09-20T10:36:10.003Z,17.2
2022-09-20T10:38:15.804Z,17.4
2022-09-20T10:40:21.664Z,19
2022-09-20T10:42:27.425Z,19.3
2022-09-20T10:48:44.848Z,19.7
2022-09-20T10:50:53.652Z,17.4
2022-09-20T10:52:59.442Z,17.3
2022-09-20T10:55:05.252Z,17.1
2022-09-20T10:57:11.087Z,17.1
2022-09-20T10:59:16.901Z,17.5
2022-09-20T11:01:22.753Z,17.5
2022-09-20T11:03:30.103Z,17.6
2022-09-20T11:05:38.840Z,17.5
2022-09-20T11:07:44.637Z,17.5
2022-09-20T11:09:50.448Z,17.7
2022-09-20T11:10:54.836Z,17.3
2022-09-20T11:15:06.484Z,17
2022-09-20T11:21:26.875Z,16.8
2022-09-20T11:25:38.586Z,17.6
2022-09-20T11:27:44.305Z,17.4
2022-09-20T11:29:50.100Z,17.3
2022-09-20T11:31:56.000Z,17.5
2022-09-20T11:34:04.677Z,18.4
2022-09-20T11:36:10.490Z,18.5
2022-09-20T11:38:16.320Z,18.2
2022-09-20T11:40:22.238Z,17.7
2022-09-20T11:42:27.922Z,17.6
2022-09-20T11:44:33.729Z,17.7
2022-09-20T11:46:39.558Z,17.7
2022-09-20T11:48:48.330Z,17.4
2022-09-20T11:50:54.143Z,17.4
2022-09-20T11:52:59.947Z,17.2
2022-09-20T11:55:05.736Z,16.8
2022-09-20T11:57:11.564Z,16.7
2022-09-20T12:01:26.195Z,16.4
2022-09-20T12:05:37.824Z,16.5
2022-09-20T12:07:43.592Z,16.5
2022-09-20T12:08:47.975Z,16.5
2022-09-20T12:10:53.821Z,16.7
2022-09-20T12:12:59.646Z,16.7
2022-09-20T12:15:05.448Z,16.8
2022-09-20T12:17:14.235Z,16.7
2022-09-20T12:21:25.883Z,16.8
2022-09-20T12:23:31.704Z,17
2022-09-20T12:25:37.524Z,17.1
2022-09-20T12:27:43.346Z,17.1
2022-09-20T12:29:49.151Z,17.1
2022-09-20T12:31:58.029Z,17.1
2022-09-20T12:34:03.761Z,17.1
2022-09-20T12:36:09.554Z,17
2022-09-20T12:38:15.387Z,17.2
2022-09-20T12:46:41.627Z,17.3
2022-09-20T12:48:47.437Z,17.2
2022-09-20T12:52:59.057Z,16.8
2022-09-20T12:55:08.951Z,16.6
2022-09-20T12:57:10.655Z,16.6
2022-09-20T12:59:16.460Z,16.6
2022-09-20T13:01:25.335Z,16.5
2022-09-20T13:03:31.098Z,16.4
2022-09-20T13:05:36.899Z,16.3
2022-09-20T13:08:47.113Z,16.3
2022-09-20T13:12:58.758Z,16.5
2022-09-20T13:15:07.521Z,16.7
2022-09-20T13:17:13.323Z,16.7
2022-09-20T13:19:19.142Z,16.9
2022-09-20T13:21:24.941Z,17.6
2022-09-20T13:23:30.758Z,18.2
2022-09-20T13:25:36.571Z,18.6
2022-09-20T13:27:42.401Z,18.9
2022-09-20T13:29:51.198Z,18.3
2022-09-20T13:31:57.004Z,18.2
2022-09-20T13:34:02.809Z,17.7
2022-09-20T13:36:08.603Z,18
2022-09-20T13:38:14.408Z,18.1
2022-09-20T13:40:20.294Z,18.2
2022-09-20T13:42:26.017Z,17.9
2022-09-20T13:46:40.622Z,17.9
2022-09-20T13:48:46.443Z,17.9
2022-09-20T13:52:58.045Z,18.5
2022-09-20T13:55:03.876Z,18.4
2022-09-20T14:03:30.083Z,18.4
2022-09-20T14:06:01.372Z,17.7
2022-09-20T14:08:07.177Z,17.6
2022-09-20T14:10:12.999Z,17.5
2022-09-20T14:14:27.619Z,17.3
2022-09-20T14:16:33.440Z,17.4
2022-09-20T14:18:39.258Z,17.6
2022-09-20T14:20:45.110Z,17.6
2022-09-20T14:22:50.900Z,17.2
2022-09-20T14:24:56.726Z,17.5
2022-09-20T14:27:05.476Z,17.5
2022-09-20T14:29:11.281Z,17.5
2022-09-20T14:31:17.127Z,17.6
2022-09-20T14:33:22.929Z,17.6
2022-09-20T14:35:28.757Z,17.5
2022-09-20T14:37:34.556Z,17
2022-09-20T14:39:44.689Z,16.7
2022-09-20T14:46:00.813Z,17.3
2022-09-20T14:48:10.837Z,17.1
2022-09-20T14:50:12.383Z,16.8
2022-09-20T14:52:18.207Z,16.5
2022-09-20T14:56:32.796Z,16.6
2022-09-20T14:58:38.615Z,16.6
2022-09-20T15:00:44.449Z,16.7
2022-09-20T15:03:54.622Z,16.7
2022-09-20T15:06:00.435Z,16.8
2022-09-20T15:08:06.265Z,16.6
2022-09-20T15:12:20.827Z,16.4
2022-09-20T15:14:26.604Z,16.7
2022-09-20T15:18:38.265Z,16.6
2022-09-20T15:22:49.889Z,16.5
2022-09-20T15:24:58.684Z,16.8
2022-09-20T15:27:04.423Z,16.8
2022-09-20T15:29:10.237Z,17.1
2022-09-20T15:31:16.094Z,17.1
2022-09-20T15:33:21.847Z,17.1
2022-09-20T15:35:27.655Z,17.2
2022-09-20T15:37:33.460Z,17.1
2022-09-20T15:43:53.909Z,16.9
2022-09-20T15:46:00.095Z,16.6
2022-09-20T15:48:05.487Z,16.7
2022-09-20T15:50:11.323Z,16.7
2022-09-20T15:52:17.128Z,16.7
2022-09-20T15:54:25.933Z,16.6
2022-09-20T15:56:31.741Z,16.6
2022-09-20T15:58:37.551Z,16.6
2022-09-20T15:59:41.931Z,16.6
2022-09-20T16:01:47.833Z,16.5
2022-09-20T16:03:53.553Z,16.4
2022-09-20T16:06:03.438Z,16.4
2022-09-20T16:08:08.150Z,16.4
2022-09-20T16:10:13.922Z,16.4
2022-09-20T16:12:19.764Z,16.4
2022-09-20T16:14:25.577Z,16.4
2022-09-20T16:16:34.001Z,16.3
2022-09-20T16:18:37.206Z,16.5
2022-09-20T16:20:43.029Z,16.8
2022-09-20T16:22:51.831Z,16.8
2022-09-20T16:24:57.647Z,16.7
2022-09-20T16:29:09.272Z,16.6
2022-09-20T16:31:15.110Z,16.6
2022-09-20T16:33:20.871Z,16.7
2022-09-20T16:35:26.689Z,16.7
2022-09-20T16:37:35.488Z,16.7
2022-09-20T16:43:52.912Z,16.2
2022-09-20T16:45:58.779Z,16.1
2022-09-20T16:50:10.389Z,15.8
2022-09-20T16:52:19.142Z,15.6
2022-09-20T16:54:28.452Z,15.6
2022-09-20T16:56:30.815Z,15.5
2022-09-20T17:01:46.791Z,15.4
2022-09-20T17:06:03.155Z,15.3
2022-09-20T17:08:08.784Z,15.2
2022-09-20T17:10:14.592Z,15.2
2022-09-20T17:12:20.422Z,15.1
2022-09-20T17:16:32.105Z,15
2022-09-20T17:22:52.414Z,14.9
2022-09-20T17:24:58.225Z,14.8
2022-09-20T17:29:09.897Z,14.7
2022-09-20T17:33:21.467Z,14.6
2022-09-20T17:35:30.260Z,14.5
2022-09-20T17:39:41.881Z,14.4
2022-09-20T17:43:53.512Z,14.2
2022-09-20T17:45:59.251Z,14.2
2022-09-20T17:48:05.087Z,14.1
2022-09-20T17:50:13.820Z,14.1
2022-09-20T17:52:19.630Z,14.1
2022-09-20T17:54:25.442Z,14
2022-09-20T17:56:56.770Z,13.9
2022-09-20T17:59:02.554Z,13.9
2022-09-20T18:01:12.463Z,13.9
2022-09-20T18:03:17.171Z,13.7
2022-09-20T18:05:22.924Z,13.7
2022-09-20T18:07:28.720Z,13.7
2022-09-20T18:11:40.304Z,13.6
2022-09-20T18:15:51.955Z,13.5
2022-09-20T18:18:00.720Z,13.4
2022-09-20T18:20:06.486Z,13.4
2022-09-20T18:22:12.304Z,13.3
2022-09-20T18:26:23.922Z,13.2
2022-09-20T18:28:29.696Z,13.1
2022-09-20T18:30:35.504Z,13.1
2022-09-20T18:32:44.279Z,13
2022-09-20T18:34:50.080Z,13
2022-09-20T18:36:55.843Z,13
2022-09-20T18:39:01.656Z,13
2022-09-20T18:41:07.451Z,13
2022-09-20T18:43:13.237Z,12.9
2022-09-20T18:45:19.049Z,12.9
2022-09-20T18:47:27.813Z,12.8
2022-09-20T18:49:33.602Z,12.8
2022-09-20T18:51:40.282Z,12.8
2022-09-20T18:52:43.802Z,12.7
2022-09-20T18:54:49.584Z,12.7
2022-09-20T18:56:55.373Z,12.7
2022-09-20T18:59:01.169Z,12.7
2022-09-20T19:01:10.051Z,12.6
2022-09-20T19:03:15.725Z,12.6
2022-09-20T19:05:21.527Z,12.6
2022-09-20T19:07:27.321Z,12.5
2022-09-20T19:09:33.110Z,12.5
2022-09-20T19:11:38.884Z,12.5
2022-09-20T19:13:44.677Z,12.4
2022-09-20T19:15:53.472Z,12.4
2022-09-20T19:17:59.226Z,12.3
2022-09-20T19:20:05.015Z,12.4
2022-09-20T19:22:10.794Z,12.4
2022-09-20T19:24:16.622Z,12.3
2022-09-20T19:26:22.379Z,12.3
2022-09-20T19:28:28.180Z,12.3
2022-09-20T19:32:42.695Z,12.3
2022-09-20T19:34:48.509Z,12.3
2022-09-20T19:36:54.267Z,12.3
2022-09-20T19:39:00.066Z,12.2
2022-09-20T19:43:11.614Z,12.2
2022-09-20T19:45:20.368Z,12.1
2022-09-20T19:49:31.950Z,12.1
2022-09-20T19:50:36.334Z,12.1
2022-09-20T19:52:42.144Z,12.1
2022-09-20T19:54:47.906Z,12
2022-09-20T19:59:02.440Z,11.9
2022-09-20T20:01:08.223Z,11.9
2022-09-20T20:03:14.076Z,11.9
2022-09-20T20:05:19.766Z,11.9
2022-09-20T20:07:25.529Z,11.9
2022-09-20T20:09:31.307Z,11.9
2022-09-20T20:11:37.092Z,11.9
2022-09-20T20:13:45.835Z,11.9
2022-09-20T20:15:51.623Z,11.9
2022-09-20T20:20:03.145Z,11.8
2022-09-20T20:22:08.944Z,11.8
2022-09-20T20:24:14.668Z,11.8
2022-09-20T20:26:21.182Z,11.8
2022-09-20T20:28:29.199Z,11.8
2022-09-20T20:30:34.976Z,11.8
2022-09-20T20:32:40.765Z,11.7
2022-09-20T20:34:46.515Z,11.7
2022-09-20T20:36:52.291Z,11.7
2022-09-20T20:38:58.065Z,11.7
2022-09-20T20:41:03.820Z,11.7
2022-09-20T20:43:12.584Z,11.7
2022-09-20T20:45:18.363Z,11.7
2022-09-20T20:47:24.114Z,11.6
2022-09-20T20:48:28.483Z,11.6
2022-09-20T20:50:34.278Z,11.6
2022-09-20T20:52:40.042Z,11.6
2022-09-20T20:54:45.801Z,11.6
2022-09-20T20:56:54.570Z,11.6
2022-09-20T20:59:00.325Z,11.6
2022-09-20T21:01:06.097Z,11.6
2022-09-20T21:03:11.867Z,11.6
2022-09-20T21:05:17.612Z,11.5
2022-09-20T21:07:23.380Z,11.5
2022-09-20T21:09:29.155Z,11.5
2022-09-20T21:11:38.115Z,11.4
2022-09-20T21:13:43.972Z,11.4
2022-09-20T21:15:49.796Z,11.4
2022-09-20T21:17:55.610Z,11.4
2022-09-20T21:20:01.511Z,11.4
2022-09-20T21:22:07.347Z,11.3
2022-09-20T21:24:13.129Z,11.3
2022-09-20T21:26:21.953Z,11.2
2022-09-20T21:30:33.579Z,11.1
2022-09-20T21:32:39.476Z,11.1
2022-09-20T21:34:45.298Z,11
2022-09-20T21:36:51.088Z,11.1
2022-09-20T21:38:56.826Z,11.1
2022-09-20T21:43:11.629Z,11
2022-09-20T21:45:17.491Z,11
2022-09-20T21:47:48.952Z,10.9
2022-09-20T21:49:54.718Z,10.8
2022-09-20T21:52:00.574Z,10.8
2022-09-20T21:54:09.555Z,10.8
2022-09-20T21:56:15.387Z,10.7
2022-09-20T21:58:21.221Z,10.7
2022-09-20T22:00:27.095Z,10.7
2022-09-20T22:02:32.982Z,10.6
2022-09-20T22:04:38.684Z,10.6
2022-09-20T22:06:44.555Z,10.6
2022-09-20T22:08:54.047Z,10.6
2022-09-20T22:10:59.337Z,10.6
2022-09-20T22:13:05.195Z,10.6
2022-09-20T22:21:28.600Z,10.3
2022-09-20T22:23:37.536Z,10.3
2022-09-20T22:25:43.398Z,10.4
2022-09-20T22:27:49.230Z,10.3
2022-09-20T22:29:55.088Z,10.3
2022-09-20T22:32:00.928Z,10.3
2022-09-20T22:34:06.773Z,10.3
2022-09-20T22:36:12.642Z,10.3
2022-09-20T22:38:21.540Z,10.3
2022-09-20T22:40:27.430Z,10.3
2022-09-20T22:42:33.204Z,10.3
2022-09-20T22:45:43.565Z,10.3
2022-09-20T22:52:04.134Z,10.3
2022-09-20T22:54:10.102Z,10.3
2022-09-20T22:56:15.814Z,10.3
2022-09-20T22:58:21.673Z,10.2
2022-09-20T23:00:27.404Z,10.2
2022-09-20T23:02:33.242Z,10.2
2022-09-20T23:04:39.089Z,10.2
2022-09-20T23:06:49.609Z,10.2
2022-09-20T23:08:55.419Z,10.2
2022-09-20T23:11:01.400Z,10.3
2022-09-20T23:13:07.133Z,10.3
2022-09-20T23:21:33.577Z,10.3
2022-09-20T23:23:39.313Z,10.3
2022-09-20T23:25:45.159Z,10.3
2022-09-20T23:27:51.003Z,10.4
2022-09-20T23:29:56.844Z,10.3
2022-09-20T23:32:02.710Z,10.3
2022-09-20T23:34:08.572Z,10.2
2022-09-20T23:36:17.628Z,10.2
2022-09-20T23:38:23.310Z,10.2
2022-09-20T23:40:29.178Z,10.2
2022-09-20T23:41:33.620Z,10.2
2022-09-20T23:43:39.459Z,10.2
2022-09-20T23:45:45.344Z,10.2
2022-09-20T23:47:51.146Z,10.2
2022-09-20T23:50:00.078Z,10.2
2022-09-20T23:52:05.913Z,10.2
2022-09-20T23:54:11.634Z,10.2
2022-09-20T23:56:17.473Z,10.1
2022-09-20T23:58:23.318Z,10.1
